createdAt,value
2022-12-20T00:02:30.207Z,2.05
2022-12-20T00:05:36.703Z,2.03
2022-12-20T00:08:39.354Z,2.05
2022-12-20T00:11:41.421Z,2.20
2022-12-20T00:14:43.016Z,2.25
2022-12-20T00:17:44.500Z,2.24
2022-12-20T00:20:46.414Z,2.17
2022-12-20T00:23:48.076Z,2.09
2022-12-20T00:26:50.160Z,2.16
2022-12-20T00:29:51.833Z,2.13
2022-12-20T00:32:53.318Z,2.14
2022-12-20T00:35:57.806Z,2.19
2022-12-20T00:39:01.340Z,2.19
2022-12-20T00:42:02.888Z,2.27
2022-12-20T00:45:04.746Z,2.32
2022-12-20T00:48:06.411Z,2.29
2022-12-20T00:51:13.335Z,2.12
2022-12-20T00:54:14.845Z,2.26
2022-12-20T00:57:16.338Z,2.22
2022-12-20T01:00:18.786Z,2.26
2022-12-20T01:03:21.865Z,2.14
2022-12-20T01:06:25.165Z,2.23
2022-12-20T01:09:26.688Z,2.32
2022-12-20T01:12:28.158Z,2.37
2022-12-20T01:15:29.633Z,2.49
2022-12-20T01:18:31.562Z,2.41
2022-12-20T01:21:33.427Z,2.45
2022-12-20T01:24:34.939Z,2.64
2022-12-20T01:27:36.359Z,2.75
2022-12-20T01:30:40.714Z,2.87
2022-12-20T01:33:42.950Z,2.95
2022-12-20T01:36:44.719Z,3.08
2022-12-20T01:39:46.197Z,3.12
2022-12-20T01:42:47.615Z,3.09
2022-12-20T01:45:49.450Z,3.18
2022-12-20T01:48:58.573Z,3.08
2022-12-20T01:52:11.967Z,3.03
2022-12-20T01:55:20.075Z,3.08
2022-12-20T01:58:22.067Z,3.24
2022-12-20T02:01:25.312Z,3.15
2022-12-20T02:04:26.947Z,3.19
2022-12-20T02:07:30.824Z,3.24
2022-12-20T02:11:11.050Z,2.99
2022-12-20T02:14:27.611Z,3.03
2022-12-20T02:17:51.998Z,3.23
2022-12-20T02:21:19.472Z,3.15
2022-12-20T02:24:33.646Z,3.17
2022-12-20T02:27:45.764Z,3.35
2022-12-20T02:30:52.213Z,3.19
2022-12-20T02:33:57.724Z,3.37
2022-12-20T02:36:59.265Z,3.39
2022-12-20T02:40:02.600Z,3.33
2022-12-20T02:43:26.826Z,3.31
2022-12-20T02:46:29.555Z,3.31
2022-12-20T02:49:33.811Z,3.26
2022-12-20T02:52:36.315Z,3.27
2022-12-20T02:55:47.738Z,3.04
2022-12-20T02:58:55.229Z,3.26
2022-12-20T03:01:57.766Z,3.47
2022-12-20T03:05:00.675Z,3.68
2022-12-20T03:08:02.458Z,3.82
2022-12-20T03:11:04.042Z,3.81
2022-12-20T03:14:06.984Z,3.63
2022-12-20T03:17:09.344Z,3.94
2022-12-20T03:20:13.391Z,3.87
2022-12-20T03:23:14.925Z,3.84
2022-12-20T03:26:16.403Z,3.83
2022-12-20T03:29:23.643Z,3.74
2022-12-20T03:32:25.127Z,3.59
2022-12-20T03:35:26.636Z,3.54
2022-12-20T03:38:28.256Z,3.70
2022-12-20T03:41:29.698Z,3.61
2022-12-20T03:44:31.698Z,3.63
2022-12-20T03:47:33.727Z,3.65
2022-12-20T03:50:37.140Z,3.67
2022-12-20T03:53:38.668Z,3.65
2022-12-20T03:56:40.183Z,3.59
2022-12-20T03:59:41.856Z,3.45
2022-12-20T04:02:46.547Z,3.55
2022-12-20T04:05:48.380Z,3.49
2022-12-20T04:08:50.084Z,3.49
2022-12-20T04:11:59.018Z,3.51
2022-12-20T04:15:01.950Z,3.51
2022-12-20T04:18:04.450Z,3.49
2022-12-20T04:21:07.220Z,3.40
2022-12-20T04:24:11.684Z,3.37
2022-12-20T04:27:18.794Z,3.26
2022-12-20T04:30:21.036Z,3.37
2022-12-20T04:33:23.635Z,3.46
2022-12-20T04:36:25.631Z,3.54
2022-12-20T04:39:29.337Z,3.55
2022-12-20T04:42:57.173Z,3.66
2022-12-20T04:45:59.325Z,3.58
2022-12-20T04:49:01.277Z,3.55
2022-12-20T04:52:24.469Z,3.52
2022-12-20T04:55:26.041Z,3.54
2022-12-20T04:58:28.186Z,3.64
2022-12-20T05:01:29.901Z,3.57
2022-12-20T05:04:37.088Z,3.44
2022-12-20T05:07:39.993Z,3.53
2022-12-20T05:10:42.494Z,3.59
2022-12-20T05:13:44.077Z,3.52
2022-12-20T05:16:46.040Z,3.48
2022-12-20T05:19:47.777Z,3.49
2022-12-20T05:23:09.483Z,3.57
2022-12-20T05:26:17.507Z,3.50
2022-12-20T05:29:19.364Z,3.40
2022-12-20T05:32:21.067Z,3.43
2022-12-20T05:35:23.114Z,3.49
2022-12-20T05:38:30.876Z,3.55
2022-12-20T05:41:33.649Z,3.42
2022-12-20T05:44:35.966Z,3.30
2022-12-20T05:47:38.919Z,3.45
2022-12-20T05:50:45.801Z,3.42
2022-12-20T05:53:59.198Z,3.46
2022-12-20T05:57:15.990Z,3.55
2022-12-20T06:00:17.716Z,3.49
2022-12-20T06:03:23.778Z,3.48
2022-12-20T06:06:25.868Z,3.66
2022-12-20T06:09:28.144Z,3.60
2022-12-20T06:12:36.226Z,3.58
2022-12-20T06:15:38.564Z,3.51
2022-12-20T06:18:40.497Z,3.61
2022-12-20T06:21:42.669Z,3.72
2022-12-20T06:24:48.813Z,3.64
2022-12-20T06:27:53.491Z,3.62
2022-12-20T06:30:56.331Z,3.52
2022-12-20T06:34:17.884Z,3.44
2022-12-20T06:37:19.543Z,3.46
2022-12-20T06:40:22.090Z,3.52
2022-12-20T06:43:23.505Z,3.43
2022-12-20T06:46:25.142Z,3.44
2022-12-20T06:49:27.014Z,3.32
2022-12-20T06:52:28.759Z,3.41
2022-12-20T06:55:30.226Z,3.60
2022-12-20T06:58:31.977Z,3.62
2022-12-20T07:01:33.561Z,3.41
2022-12-20T07:04:34.992Z,3.56
2022-12-20T07:07:42.926Z,3.60
2022-12-20T07:10:46.602Z,3.60
2022-12-20T07:13:48.432Z,3.65
2022-12-20T07:16:50.257Z,3.64
2022-12-20T07:19:51.850Z,3.67
2022-12-20T07:22:53.460Z,3.55
2022-12-20T07:25:56.443Z,3.55
2022-12-20T07:28:58.069Z,3.32
2022-12-20T07:31:59.540Z,3.39
2022-12-20T07:35:01.458Z,3.28
2022-12-20T07:38:03.089Z,3.37
2022-12-20T07:41:09.280Z,3.44
2022-12-20T07:44:11.829Z,3.61
2022-12-20T07:47:13.443Z,3.57
2022-12-20T07:50:15.077Z,3.61
2022-12-20T07:53:17.913Z,3.68
2022-12-20T07:56:22.099Z,3.59
2022-12-20T07:59:29.987Z,3.56
2022-12-20T08:02:37.144Z,3.58
2022-12-20T08:05:43.341Z,3.62
2022-12-20T08:08:49.226Z,3.68
2022-12-20T08:11:51.669Z,3.72
2022-12-20T08:14:56.063Z,3.44
2022-12-20T08:17:57.697Z,3.84
2022-12-20T08:20:59.151Z,3.85
2022-12-20T08:24:00.646Z,3.95
2022-12-20T08:27:02.192Z,3.97
2022-12-20T08:30:04.795Z,3.92
2022-12-20T08:33:06.356Z,3.90
2022-12-20T08:36:11.529Z,3.93
2022-12-20T08:39:13.031Z,4.00
2022-12-20T08:42:14.760Z,4.02
2022-12-20T08:45:16.633Z,4.06
2022-12-20T08:48:18.118Z,4.18
2022-12-20T08:51:19.680Z,4.28
2022-12-20T08:54:21.251Z,4.37
2022-12-20T08:57:22.737Z,4.44
2022-12-20T09:00:24.383Z,4.43
2022-12-20T09:03:26.747Z,4.48
2022-12-20T09:06:28.265Z,4.51
2022-12-20T09:09:29.737Z,4.57
2022-12-20T09:12:31.211Z,4.59
2022-12-20T09:15:34.637Z,4.59
2022-12-20T09:18:36.276Z,4.57
2022-12-20T09:21:37.792Z,4.67
2022-12-20T09:24:39.881Z,5.06
2022-12-20T09:27:41.450Z,5.35
2022-12-20T09:30:43.085Z,5.48
2022-12-20T09:33:45.263Z,5.58
2022-12-20T09:36:46.810Z,5.48
2022-12-20T09:39:51.523Z,5.32
2022-12-20T09:42:53.240Z,5.68
2022-12-20T09:45:58.440Z,5.79
2022-12-20T09:49:00.111Z,5.66
2022-12-20T09:52:07.587Z,5.63
2022-12-20T09:55:19.657Z,5.58
2022-12-20T09:58:40.244Z,5.81
2022-12-20T10:01:50.400Z,5.68
2022-12-20T10:04:53.676Z,5.66
2022-12-20T10:08:06.364Z,5.76
2022-12-20T10:11:13.773Z,5.84
2022-12-20T10:14:46.261Z,5.72
2022-12-20T10:18:17.085Z,5.89
2022-12-20T10:21:34.233Z,6.01
2022-12-20T10:24:36.862Z,6.07
2022-12-20T10:27:42.522Z,6.18
2022-12-20T10:30:44.211Z,6.14
2022-12-20T10:33:46.399Z,6.12
2022-12-20T10:36:51.167Z,6.10
2022-12-20T10:39:52.901Z,6.02
2022-12-20T10:42:55.504Z,6.01
2022-12-20T10:46:08.660Z,5.95
2022-12-20T10:49:30.958Z,5.98
2022-12-20T10:52:32.577Z,5.93
2022-12-20T10:55:37.979Z,5.92
2022-12-20T10:58:39.671Z,6.13
2022-12-20T11:01:44.820Z,6.37
2022-12-20T11:05:06.088Z,6.53
2022-12-20T11:08:36.178Z,6.61
2022-12-20T11:11:38.850Z,6.49
2022-12-20T11:14:43.001Z,6.58
2022-12-20T11:17:51.360Z,6.60
2022-12-20T11:21:27.927Z,6.68
2022-12-20T11:24:55.112Z,6.70
2022-12-20T11:28:10.432Z,6.73
2022-12-20T11:31:45.143Z,6.75
2022-12-20T11:35:05.955Z,6.89
2022-12-20T11:38:23.053Z,7.05
2022-12-20T11:41:44.081Z,7.26
2022-12-20T11:45:09.342Z,7.69
2022-12-20T11:48:33.119Z,7.97
2022-12-20T11:51:46.696Z,8.64
2022-12-20T11:54:56.827Z,9.15
2022-12-20T11:58:21.760Z,8.93
2022-12-20T12:01:33.813Z,8.59
2022-12-20T12:04:41.835Z,8.41
2022-12-20T12:07:47.618Z,8.34
2022-12-20T12:11:02.502Z,8.27
2022-12-20T12:14:05.819Z,8.31
2022-12-20T12:17:17.864Z,8.29
2022-12-20T12:20:45.337Z,8.28
2022-12-20T12:24:08.225Z,8.22
2022-12-20T12:27:21.479Z,8.20
2022-12-20T12:30:23.411Z,8.44
2022-12-20T12:33:38.684Z,8.75
2022-12-20T12:37:18.017Z,8.80
2022-12-20T12:40:41.041Z,8.81
2022-12-20T12:43:53.210Z,8.86
2022-12-20T12:47:05.322Z,9.01
2022-12-20T12:50:16.897Z,8.90
2022-12-20T12:53:23.716Z,8.88
2022-12-20T12:56:43.912Z,8.92
2022-12-20T12:59:48.815Z,8.82
2022-12-20T13:02:51.908Z,8.93
2022-12-20T13:05:53.589Z,8.92
2022-12-20T13:08:57.965Z,8.78
2022-12-20T13:12:03.337Z,8.78
2022-12-20T13:15:22.533Z,8.80
2022-12-20T13:18:25.631Z,8.61
2022-12-20T13:21:37.219Z,8.68
2022-12-20T13:24:59.168Z,8.72
2022-12-20T13:28:18.769Z,8.78
2022-12-20T13:31:31.496Z,8.80
2022-12-20T13:34:52.348Z,8.98
2022-12-20T13:38:11.603Z,9.19
2022-12-20T13:41:41.374Z,9.35
2022-12-20T13:44:45.557Z,9.24
2022-12-20T13:47:52.304Z,9.02
2022-12-20T13:50:56.409Z,8.92
2022-12-20T13:54:04.059Z,8.83
2022-12-20T13:57:07.360Z,8.96
2022-12-20T14:00:18.046Z,9.12
2022-12-20T14:03:25.646Z,9.05
2022-12-20T14:06:27.634Z,9.19
2022-12-20T14:09:33.876Z,9.12
2022-12-20T14:12:37.099Z,9.02
2022-12-20T14:15:38.723Z,9.00
2022-12-20T14:18:40.737Z,8.82
2022-12-20T14:21:44.770Z,8.88
2022-12-20T14:24:46.583Z,8.91
2022-12-20T14:27:48.758Z,9.11
2022-12-20T14:30:50.362Z,8.99
2022-12-20T14:34:00.810Z,9.08
2022-12-20T14:37:28.577Z,9.12
2022-12-20T14:40:53.607Z,9.07
2022-12-20T14:43:56.849Z,9.05
2022-12-20T14:47:05.326Z,8.92
2022-12-20T14:50:18.639Z,8.93
2022-12-20T14:53:25.063Z,8.87
2022-12-20T14:56:32.230Z,8.79
2022-12-20T14:59:34.067Z,8.65
2022-12-20T15:03:01.002Z,8.60
2022-12-20T15:06:03.606Z,8.51
2022-12-20T15:09:05.571Z,8.44
2022-12-20T15:12:08.362Z,8.43
2022-12-20T15:15:28.787Z,8.33
2022-12-20T15:18:31.000Z,8.28
2022-12-20T15:21:38.356Z,8.25
2022-12-20T15:24:40.269Z,8.09
2022-12-20T15:27:42.031Z,8.04
2022-12-20T15:30:44.334Z,8.01
2022-12-20T15:33:46.981Z,7.92
2022-12-20T15:36:48.473Z,7.91
2022-12-20T15:39:49.965Z,7.89
2022-12-20T15:42:51.576Z,7.98
2022-12-20T15:45:53.941Z,7.86
2022-12-20T15:48:55.278Z,7.73
2022-12-20T15:51:57.229Z,7.68
2022-12-20T15:54:58.731Z,7.64
2022-12-20T15:58:00.167Z,7.68
2022-12-20T16:01:03.410Z,7.76
2022-12-20T16:04:06.191Z,7.83
2022-12-20T16:07:12.620Z,7.81
2022-12-20T16:10:15.216Z,7.67
2022-12-20T16:13:23.208Z,7.61
2022-12-20T16:16:27.739Z,7.56
2022-12-20T16:19:29.321Z,7.79
2022-12-20T16:22:31.637Z,7.92
2022-12-20T16:25:35.630Z,8.05
2022-12-20T16:28:37.166Z,8.02
2022-12-20T16:31:40.377Z,8.11
2022-12-20T16:34:42.221Z,8.27
2022-12-20T16:37:43.757Z,8.26
2022-12-20T16:40:45.639Z,8.21
2022-12-20T16:43:48.744Z,8.30
2022-12-20T16:46:50.333Z,8.45
2022-12-20T16:49:53.747Z,9.09
2022-12-20T16:52:55.516Z,9.33
2022-12-20T16:55:57.020Z,9.40
2022-12-20T16:59:18.700Z,9.72
2022-12-20T17:02:32.750Z,10.09
2022-12-20T17:05:36.853Z,9.54
2022-12-20T17:11:58.595Z,8.86
2022-12-20T17:15:00.115Z,8.85
2022-12-20T17:18:01.625Z,8.67
2022-12-20T17:21:12.891Z,8.61
2022-12-20T17:24:20.028Z,8.51
2022-12-20T17:27:21.574Z,8.53
2022-12-20T17:30:25.500Z,8.55
2022-12-20T17:33:27.050Z,8.34
2022-12-20T17:36:33.054Z,8.42
2022-12-20T17:39:39.078Z,8.41
2022-12-20T17:42:42.027Z,8.39
2022-12-20T17:45:43.615Z,8.38
2022-12-20T17:48:49.175Z,8.23
2022-12-20T17:51:51.540Z,8.27
2022-12-20T17:54:52.903Z,8.24
2022-12-20T17:57:55.279Z,8.17
2022-12-20T18:00:56.759Z,8.22
2022-12-20T18:04:03.949Z,8.25
2022-12-20T18:07:05.926Z,8.29
2022-12-20T18:10:08.233Z,8.35
2022-12-20T18:13:10.078Z,8.46
2022-12-20T18:16:12.908Z,8.51
2022-12-20T18:19:19.167Z,8.41
2022-12-20T18:22:20.681Z,8.37
2022-12-20T18:25:22.185Z,8.58
2022-12-20T18:28:23.685Z,8.29
2022-12-20T18:31:27.553Z,8.32
2022-12-20T18:34:29.081Z,8.36
2022-12-20T18:37:30.557Z,8.41
2022-12-20T18:40:31.995Z,8.43
2022-12-20T18:43:35.100Z,8.34
2022-12-20T18:46:36.747Z,8.26
2022-12-20T18:49:38.249Z,8.26
2022-12-20T18:52:41.187Z,8.19
2022-12-20T18:55:44.679Z,8.13
2022-12-20T18:58:50.084Z,8.09
2022-12-20T19:01:52.644Z,8.24
2022-12-20T19:04:54.477Z,8.19
2022-12-20T19:07:56.036Z,8.15
2022-12-20T19:10:59.595Z,8.10
2022-12-20T19:14:01.100Z,8.24
2022-12-20T19:17:02.606Z,8.27
2022-12-20T19:20:05.087Z,8.26
2022-12-20T19:23:08.072Z,8.41
2022-12-20T19:26:12.183Z,8.63
2022-12-20T19:29:13.686Z,8.79
2022-12-20T19:32:15.491Z,8.98
2022-12-20T19:35:53.595Z,8.86
2022-12-20T19:38:43.654Z,8.75
2022-12-20T19:41:55.042Z,8.68
2022-12-20T19:45:07.034Z,8.64
2022-12-20T19:48:08.640Z,8.59
2022-12-20T19:51:13.736Z,8.64
2022-12-20T19:54:15.260Z,8.49
2022-12-20T19:57:16.758Z,8.47
2022-12-20T20:00:18.518Z,8.46
2022-12-20T20:03:21.444Z,8.30
2022-12-20T20:06:24.186Z,8.21
2022-12-20T20:09:25.853Z,8.23
2022-12-20T20:12:27.289Z,8.14
2022-12-20T20:15:28.910Z,8.08
2022-12-20T20:18:33.768Z,8.04
2022-12-20T20:21:36.612Z,8.02
2022-12-20T20:24:38.337Z,8.00
2022-12-20T20:27:39.900Z,8.06
2022-12-20T20:30:43.232Z,8.15
2022-12-20T20:33:44.806Z,8.08
2022-12-20T20:36:46.234Z,8.05
2022-12-20T20:39:47.809Z,8.04
2022-12-20T20:42:51.587Z,8.02
2022-12-20T20:45:53.190Z,7.98
2022-12-20T20:48:54.747Z,7.91
2022-12-20T20:51:56.267Z,7.88
2022-12-20T20:54:57.687Z,7.83
2022-12-20T20:57:59.290Z,7.94
2022-12-20T21:01:03.249Z,7.97
2022-12-20T21:04:05.359Z,7.92
2022-12-20T21:07:07.051Z,8.00
2022-12-20T21:10:09.339Z,7.99
2022-12-20T21:13:12.002Z,7.98
2022-12-20T21:16:22.217Z,7.88
2022-12-20T21:19:24.023Z,8.07
2022-12-20T21:22:25.578Z,8.04
2022-12-20T21:25:27.106Z,8.24
2022-12-20T21:28:28.618Z,8.25
2022-12-20T21:31:30.874Z,8.34
2022-12-20T21:34:32.538Z,8.29
2022-12-20T21:37:34.102Z,8.35
2022-12-20T21:40:35.576Z,8.30
2022-12-20T21:43:37.132Z,8.28
2022-12-20T21:46:38.611Z,8.36
2022-12-20T21:49:40.318Z,8.30
2022-12-20T21:52:44.797Z,8.31
2022-12-20T21:55:46.205Z,8.47
2022-12-20T21:58:48.338Z,8.70
2022-12-20T22:01:50.131Z,8.58
2022-12-20T22:04:51.819Z,8.54
2022-12-20T22:07:53.229Z,8.46
2022-12-20T22:11:06.942Z,8.45
2022-12-20T22:14:12.089Z,8.50
2022-12-20T22:17:13.591Z,8.60
2022-12-20T22:20:15.100Z,8.66
2022-12-20T22:23:17.276Z,8.81
2022-12-20T22:26:21.189Z,8.92
2022-12-20T22:29:22.716Z,8.90
2022-12-20T22:32:24.211Z,8.63
2022-12-20T22:35:25.655Z,8.51
2022-12-20T22:38:27.368Z,8.44
2022-12-20T22:41:31.240Z,8.38
2022-12-20T22:44:32.774Z,8.43
2022-12-20T22:47:34.833Z,8.38
2022-12-20T22:50:36.356Z,8.39
2022-12-20T22:53:38.160Z,8.71
2022-12-20T22:56:39.618Z,8.78
2022-12-20T22:59:41.286Z,8.90
2022-12-20T23:02:42.898Z,9.02
2022-12-20T23:05:56.357Z,9.36
2022-12-20T23:08:57.883Z,9.29
2022-12-20T23:12:18.256Z,9.67
2022-12-20T23:15:38.663Z,9.70
2022-12-20T23:18:40.275Z,9.77
2022-12-20T23:22:00.574Z,9.87
2022-12-20T23:25:02.217Z,9.99
2022-12-20T23:28:03.729Z,10.01
2022-12-20T23:31:06.259Z,9.78
2022-12-20T23:34:08.039Z,10.19
2022-12-20T23:37:09.559Z,9.92
2022-12-20T23:40:12.160Z,10.15
2022-12-20T23:43:13.686Z,9.96
2022-12-20T23:46:17.087Z,10.07
2022-12-20T23:49:18.565Z,9.95
2022-12-20T23:52:19.998Z,9.93
2022-12-20T23:55:21.489Z,10.11
2022-12-20T23:58:22.899Z,10.32
